Weather at Air Marugán

Public forecast

Using degrees Celsius for public forecast. Weather courtesy of forecast.io.

Closest aviation weather report (METAR) to Air Marugán

Closest report is Adolfo Suárez Madrid–Barajas Airport, 45.3 nm (83.8 km) SE. Retrieved 2021/10/25 06:30 UTC (0 seconds ago):

LEMD 250630Z 21002KT CAVOK 03/01 Q1022 NOSIG

Closest aviation forecast (TAF) to Air Marugán

Closest forecast is Base Aérea de Colmenar Viejo, 30.5 nm (56.4 km) ESE. Retrieved 2021/10/25 06:27 UTC (0 seconds ago):

TAF LECV 250500Z 2506/2606 VRB05KT CAVOK TX19/2515Z TN09/2507Z TEMPO 2522/2524 03010KT